createdAt,value
2023-05-08T00:01:11.681Z,98119.63
2023-05-08T00:03:39.215Z,98116.78
2023-05-08T00:06:06.952Z,98123.97
2023-05-08T00:08:34.402Z,98122.94
2023-05-08T00:11:01.664Z,98118.72
2023-05-08T00:13:28.855Z,98116.66
2023-05-08T00:15:56.317Z,98119.28
2023-05-08T00:18:23.594Z,98120.44
2023-05-08T00:20:50.856Z,98123.41
2023-05-08T00:23:18.021Z,98120.28
2023-05-08T00:25:45.499Z,98121.44
2023-05-08T00:28:12.725Z,98115.19
2023-05-08T00:30:40.070Z,98121.34
2023-05-08T00:33:07.688Z,98115.97
2023-05-08T00:35:35.048Z,98118.47
2023-05-08T00:38:02.334Z,98125.34
2023-05-08T00:40:29.709Z,98130.59
2023-05-08T00:42:57.018Z,98125.81
2023-05-08T00:45:24.365Z,98128.66
2023-05-08T00:47:51.689Z,98133.22
2023-05-08T00:50:19.538Z,98127.84
2023-05-08T00:52:46.972Z,98126.16
2023-05-08T00:55:14.540Z,98133.81
2023-05-08T00:57:41.930Z,98135.16
2023-05-08T01:00:10.730Z,98135.97
2023-05-08T01:02:39.494Z,98130.72
2023-05-08T01:05:07.728Z,98140.22
2023-05-08T01:07:35.139Z,98135.41
2023-05-08T01:10:02.479Z,98133.44
2023-05-08T01:13:14.669Z,98135.06
2023-05-08T01:15:59.093Z,98138.50
2023-05-08T01:18:40.370Z,98134.97
2023-05-08T01:21:28.741Z,98141.56
2023-05-08T01:24:33.119Z,98129.00
2023-05-08T01:27:29.976Z,98138.72
2023-05-08T01:30:15.862Z,98141.22
2023-05-08T01:32:55.546Z,98147.75
2023-05-08T01:35:34.529Z,98143.53
2023-05-08T01:38:28.245Z,98144.22
2023-05-08T01:41:08.834Z,98150.28
2023-05-08T01:43:42.678Z,98143.41
2023-05-08T01:46:19.677Z,98135.84
2023-05-08T01:49:23.118Z,98143.06
2023-05-08T01:52:03.698Z,98145.19
2023-05-08T01:54:41.254Z,98150.44
2023-05-08T01:57:11.062Z,98146.16
2023-05-08T01:59:41.603Z,98143.94
2023-05-08T02:02:11.433Z,98149.66
2023-05-08T02:04:41.345Z,98141.69
2023-05-08T02:07:08.752Z,98150.25
2023-05-08T02:09:37.896Z,98139.16
2023-05-08T02:12:08.392Z,98146.94
2023-05-08T02:14:38.340Z,98143.69
2023-05-08T02:17:09.433Z,98147.41
2023-05-08T02:19:39.905Z,98149.91
2023-05-08T02:22:10.100Z,98143.50
2023-05-08T02:24:38.605Z,98149.81
2023-05-08T02:27:09.983Z,98145.91
2023-05-08T02:29:38.359Z,98152.97
2023-05-08T02:32:08.807Z,98143.34
2023-05-08T02:34:40.897Z,98152.88
2023-05-08T02:37:14.036Z,98145.94
2023-05-08T02:39:44.003Z,98148.19
2023-05-08T02:42:11.700Z,98154.16
2023-05-08T02:44:39.234Z,98156.22
2023-05-08T02:47:35.848Z,98154.75
2023-05-08T02:50:17.904Z,98153.22
2023-05-08T02:52:50.989Z,98152.88
2023-05-08T02:55:34.430Z,98157.91
2023-05-08T02:58:25.073Z,98154.03
2023-05-08T03:01:40.912Z,98152.88
2023-05-08T03:04:17.964Z,98151.34
2023-05-08T03:06:47.849Z,98160.31
2023-05-08T03:09:26.314Z,98158.84
2023-05-08T03:12:14.421Z,98160.66
2023-05-08T03:15:09.318Z,98159.75
2023-05-08T03:17:38.679Z,98158.25
2023-05-08T03:20:10.349Z,98160.78
2023-05-08T03:22:38.985Z,98167.53
2023-05-08T03:25:10.779Z,98167.63
2023-05-08T03:27:41.313Z,98168.75
2023-05-08T03:30:12.078Z,98163.41
2023-05-08T03:32:44.650Z,98165.69
2023-05-08T03:35:12.217Z,98174.94
2023-05-08T03:37:40.657Z,98165.00
2023-05-08T03:40:09.480Z,98164.16
2023-05-08T03:42:37.411Z,98163.00
2023-05-08T03:45:06.726Z,98155.25
2023-05-08T03:47:37.127Z,98160.97
2023-05-08T03:50:05.267Z,98170.47
2023-05-08T03:52:33.288Z,98175.25
2023-05-08T03:55:01.746Z,98179.72
2023-05-08T03:57:41.989Z,98186.94
2023-05-08T04:00:33.022Z,98188.31
2023-05-08T04:03:23.132Z,98188.41
2023-05-08T04:06:06.462Z,98191.44
2023-05-08T04:08:55.504Z,98182.38
2023-05-08T04:11:38.441Z,98188.91
2023-05-08T04:14:08.507Z,98188.59
2023-05-08T04:16:43.783Z,98190.22
2023-05-08T04:19:18.285Z,98180.03
2023-05-08T04:21:48.251Z,98180.38
2023-05-08T04:24:17.413Z,98192.03
2023-05-08T04:26:46.373Z,98203.34
2023-05-08T04:29:16.465Z,98202.78
2023-05-08T04:31:44.380Z,98203.16
2023-05-08T04:34:12.402Z,98202.75
2023-05-08T04:36:40.352Z,98205.50
2023-05-08T04:39:08.540Z,98214.50
2023-05-08T04:41:35.879Z,98215.88
2023-05-08T04:44:05.417Z,98218.38
2023-05-08T04:46:32.848Z,98221.78
2023-05-08T04:49:00.199Z,98226.13
2023-05-08T04:51:29.593Z,98219.25
2023-05-08T04:53:57.033Z,98222.19
2023-05-08T04:56:24.307Z,98228.78
2023-05-08T04:58:51.803Z,98236.34
2023-05-08T05:01:19.433Z,98235.97
2023-05-08T05:03:47.235Z,98228.44
2023-05-08T05:06:14.639Z,98224.88
2023-05-08T05:08:41.833Z,98238.13
2023-05-08T05:11:09.245Z,98231.06
2023-05-08T05:13:36.531Z,98224.78
2023-05-08T05:16:03.903Z,98237.81
2023-05-08T05:18:31.309Z,98236.75
2023-05-08T05:20:59.405Z,98241.06
2023-05-08T05:23:27.418Z,98247.13
2023-05-08T05:25:54.684Z,98254.75
2023-05-08T05:28:22.180Z,98256.06
2023-05-08T05:30:49.590Z,98250.63
2023-05-08T05:33:17.631Z,98248.53
2023-05-08T05:35:45.131Z,98256.16
2023-05-08T05:38:12.731Z,98258.56
2023-05-08T05:40:40.178Z,98268.41
2023-05-08T05:43:07.404Z,98263.84
2023-05-08T05:45:34.954Z,98264.81
2023-05-08T05:48:02.772Z,98266.84
2023-05-08T05:50:31.614Z,98262.88
2023-05-08T05:52:59.606Z,98259.50
2023-05-08T05:55:27.703Z,98265.78
2023-05-08T05:57:55.692Z,98269.69
2023-05-08T06:00:23.143Z,98265.63
2023-05-08T06:02:55.162Z,98275.00
2023-05-08T06:05:23.312Z,98279.53
2023-05-08T06:07:51.647Z,98277.63
2023-05-08T06:10:20.060Z,98280.31
2023-05-08T06:12:47.449Z,98282.72
2023-05-08T06:15:16.084Z,98300.97
2023-05-08T06:17:45.885Z,98302.34
2023-05-08T06:20:13.828Z,98302.34
2023-05-08T06:22:41.880Z,98302.19
2023-05-08T06:25:10.236Z,98294.13
2023-05-08T06:27:38.046Z,98307.47
2023-05-08T06:30:08.696Z,98314.78
2023-05-08T06:32:36.784Z,98315.13
2023-05-08T06:35:04.485Z,98303.63
2023-05-08T06:37:31.830Z,98314.50
2023-05-08T06:40:10.958Z,98322.09
2023-05-08T06:42:41.864Z,98320.75
2023-05-08T06:45:10.414Z,98324.81
2023-05-08T06:47:38.404Z,98328.28
2023-05-08T06:50:06.936Z,98326.56
2023-05-08T06:52:34.267Z,98322.53
2023-05-08T06:55:01.626Z,98318.88
2023-05-08T06:57:30.354Z,98313.78
2023-05-08T06:59:57.687Z,98306.09
2023-05-08T07:02:25.034Z,98314.38
2023-05-08T07:04:52.461Z,98315.69
2023-05-08T07:07:19.720Z,98319.13
2023-05-08T07:09:47.025Z,98325.91
2023-05-08T07:12:16.671Z,98325.94
2023-05-08T07:14:44.129Z,98312.94
2023-05-08T07:17:11.486Z,98309.56
2023-05-08T07:19:39.197Z,98318.88
2023-05-08T07:22:06.750Z,98323.84
2023-05-08T07:24:34.254Z,98327.66
2023-05-08T07:27:01.548Z,98336.31
2023-05-08T07:29:29.124Z,98328.03
2023-05-08T07:31:56.417Z,98326.28
2023-05-08T07:34:23.733Z,98331.59
2023-05-08T07:36:50.919Z,98326.31
2023-05-08T07:39:18.217Z,98334.63
2023-05-08T07:41:46.763Z,98329.50
2023-05-08T07:44:16.108Z,98347.84
2023-05-08T07:46:43.360Z,98354.41
2023-05-08T07:49:10.519Z,98357.78
2023-05-08T07:51:37.829Z,98368.81
2023-05-08T07:54:05.191Z,98377.63
2023-05-08T07:56:32.558Z,98376.25
2023-05-08T07:58:59.742Z,98373.81
2023-05-08T08:01:27.502Z,98371.31
2023-05-08T08:03:54.835Z,98376.91
2023-05-08T08:06:22.121Z,98368.56
2023-05-08T08:08:49.485Z,98355.50
2023-05-08T08:11:16.722Z,98358.34
2023-05-08T08:13:44.060Z,98367.97
2023-05-08T08:16:11.353Z,98374.72
2023-05-08T08:18:38.762Z,98371.00
2023-05-08T08:21:07.658Z,98375.91
2023-05-08T08:23:35.185Z,98377.19
2023-05-08T08:26:02.521Z,98375.53
2023-05-08T08:28:29.933Z,98364.81
2023-05-08T08:30:57.421Z,98367.69
2023-05-08T08:33:24.666Z,98361.81
2023-05-08T08:35:51.988Z,98368.09
2023-05-08T08:38:19.322Z,98361.97
2023-05-08T08:40:46.654Z,98362.44
2023-05-08T08:43:14.099Z,98365.50
2023-05-08T08:45:41.385Z,98354.94
2023-05-08T08:48:12.485Z,98379.06
2023-05-08T08:50:47.578Z,98357.97
2023-05-08T08:53:29.595Z,98349.59
2023-05-08T08:56:01.029Z,98364.59
2023-05-08T08:58:39.211Z,98360.44
2023-05-08T09:01:09.732Z,98368.50
2023-05-08T09:03:37.663Z,98369.78
2023-05-08T09:06:05.603Z,98384.41
2023-05-08T09:08:32.977Z,98382.16
2023-05-08T09:11:02.763Z,98377.22
2023-05-08T09:13:30.592Z,98391.34
2023-05-08T09:16:01.420Z,98380.34
2023-05-08T09:18:28.835Z,98371.19
2023-05-08T09:20:56.619Z,98382.00
2023-05-08T09:23:24.050Z,98380.63
2023-05-08T09:25:51.466Z,98374.91
2023-05-08T09:28:26.143Z,98385.09
2023-05-08T09:31:01.765Z,98364.81
2023-05-08T09:33:30.204Z,98375.00
2023-05-08T09:35:58.189Z,98374.50
2023-05-08T09:38:37.177Z,98379.84
2023-05-08T09:41:15.617Z,98360.72
2023-05-08T09:43:45.287Z,98370.19
2023-05-08T09:46:24.563Z,98363.22
2023-05-08T09:48:57.584Z,98362.72
2023-05-08T09:51:32.078Z,98360.53
2023-05-08T09:54:00.625Z,98373.41
2023-05-08T09:56:39.556Z,98364.69
2023-05-08T09:59:27.916Z,98380.91
2023-05-08T10:01:57.431Z,98360.53
2023-05-08T10:04:35.280Z,98351.50
2023-05-08T10:07:04.007Z,98360.06
2023-05-08T10:09:42.462Z,98355.56
2023-05-08T10:12:14.808Z,98354.50
2023-05-08T10:14:44.098Z,98342.72
2023-05-08T10:17:14.521Z,98344.81
2023-05-08T10:19:45.657Z,98348.53
2023-05-08T10:22:15.857Z,98340.09
2023-05-08T10:24:44.255Z,98336.66
2023-05-08T10:27:31.994Z,98341.28
2023-05-08T10:30:06.054Z,98335.19
2023-05-08T10:32:43.401Z,98331.91
2023-05-08T10:35:12.341Z,98340.00
2023-05-08T10:37:42.420Z,98347.56
2023-05-08T10:40:11.172Z,98343.84
2023-05-08T10:42:38.932Z,98355.22
2023-05-08T10:45:07.889Z,98339.94
2023-05-08T10:48:11.527Z,98346.78
2023-05-08T10:51:50.643Z,98336.88
2023-05-08T10:55:02.329Z,98345.97
2023-05-08T10:57:29.631Z,98345.94
2023-05-08T10:59:57.054Z,98342.28
2023-05-08T11:02:32.909Z,98336.16
2023-05-08T11:05:16.965Z,98333.34
2023-05-08T11:07:58.668Z,98340.44
2023-05-08T11:10:33.331Z,98324.88
2023-05-08T11:13:01.402Z,98311.94
2023-05-08T11:15:40.098Z,98342.72
2023-05-08T11:18:10.183Z,98322.47
2023-05-08T11:21:08.965Z,98316.25
2023-05-08T11:23:37.221Z,98312.00
2023-05-08T11:26:16.631Z,98315.59
2023-05-08T11:28:59.640Z,98316.34
2023-05-08T11:31:50.295Z,98312.56
2023-05-08T11:34:42.799Z,98309.22
2023-05-08T11:37:18.865Z,98304.09
2023-05-08T11:39:47.529Z,98314.31
2023-05-08T11:42:27.295Z,98317.22
2023-05-08T11:45:08.118Z,98312.09
2023-05-08T11:47:45.412Z,98306.91
2023-05-08T11:50:14.297Z,98316.97
2023-05-08T11:52:43.482Z,98315.09
2023-05-08T11:55:13.085Z,98313.78
2023-05-08T11:57:41.321Z,98323.50
2023-05-08T12:00:11.707Z,98307.19
2023-05-08T12:02:45.911Z,98299.22
2023-05-08T12:05:13.455Z,98305.31
2023-05-08T12:07:47.522Z,98305.06
2023-05-08T12:10:16.877Z,98303.41
2023-05-08T12:12:45.694Z,98297.59
2023-05-08T12:15:16.146Z,98302.41
2023-05-08T12:17:43.571Z,98307.94
2023-05-08T12:20:17.593Z,98287.00
2023-05-08T12:22:53.264Z,98295.94
2023-05-08T12:25:20.772Z,98315.09
2023-05-08T12:27:48.416Z,98309.25
2023-05-08T12:30:16.678Z,98303.66
2023-05-08T12:32:44.749Z,98316.47
2023-05-08T12:35:14.230Z,98300.53
2023-05-08T12:37:41.673Z,98300.78
2023-05-08T12:40:25.542Z,98296.03
2023-05-08T12:42:53.376Z,98305.28
2023-05-08T12:45:31.567Z,98303.47
2023-05-08T12:48:02.976Z,98303.44
2023-05-08T12:50:34.803Z,98304.03
2023-05-08T12:53:07.227Z,98306.91
2023-05-08T12:55:37.132Z,98295.19
2023-05-08T12:58:15.128Z,98301.25
2023-05-08T13:00:46.540Z,98310.09
2023-05-08T13:03:21.737Z,98304.50
2023-05-08T13:05:48.955Z,98299.19
2023-05-08T13:08:16.033Z,98297.56
2023-05-08T13:10:54.369Z,98314.91
2023-05-08T13:13:24.043Z,98315.41
2023-05-08T13:15:52.562Z,98301.31
2023-05-08T13:18:21.146Z,98294.16
2023-05-08T13:20:48.631Z,98296.84
2023-05-08T13:23:16.061Z,98299.75
2023-05-08T13:25:43.279Z,98302.66
2023-05-08T13:28:10.974Z,98287.19
2023-05-08T13:30:38.736Z,98296.31
2023-05-08T13:33:06.393Z,98298.69
2023-05-08T13:35:34.065Z,98288.59
2023-05-08T13:38:01.511Z,98294.94
2023-05-08T13:40:28.881Z,98281.91
2023-05-08T13:42:56.074Z,98280.38
2023-05-08T13:45:23.343Z,98283.78
2023-05-08T13:47:51.050Z,98278.25
2023-05-08T13:50:22.372Z,98290.44
2023-05-08T13:52:52.210Z,98298.66
2023-05-08T13:55:22.987Z,98298.91
2023-05-08T13:57:50.876Z,98295.41
2023-05-08T14:00:18.513Z,98299.16
2023-05-08T14:02:45.969Z,98284.84
2023-05-08T14:05:13.729Z,98289.09
2023-05-08T14:07:41.162Z,98289.09
2023-05-08T14:10:08.518Z,98288.81
2023-05-08T14:12:36.323Z,98289.88
2023-05-08T14:15:05.294Z,98290.81
2023-05-08T14:17:32.653Z,98284.75
2023-05-08T14:20:00.307Z,98292.19
2023-05-08T14:22:27.758Z,98300.31
2023-05-08T14:24:55.366Z,98301.00
2023-05-08T14:27:22.630Z,98305.41
2023-05-08T14:29:49.822Z,98303.00
2023-05-08T14:32:17.008Z,98304.19
2023-05-08T14:34:44.665Z,98305.13
2023-05-08T14:37:13.240Z,98304.19
2023-05-08T14:39:40.470Z,98316.22
2023-05-08T14:44:37.840Z,98310.63
2023-05-08T14:47:05.062Z,98310.63
2023-05-08T14:49:37.929Z,98307.03
2023-05-08T14:52:07.062Z,98308.91
2023-05-08T14:54:34.489Z,98309.53
2023-05-08T14:57:01.846Z,98304.75
2023-05-08T14:59:28.954Z,98318.88
2023-05-08T15:01:56.285Z,98323.22
2023-05-08T15:04:23.686Z,98326.00
2023-05-08T15:06:51.014Z,98314.06
2023-05-08T15:09:18.195Z,98315.53
2023-05-08T15:11:45.243Z,98311.34
2023-05-08T15:14:12.466Z,98316.91
2023-05-08T15:16:39.855Z,98312.81
2023-05-08T15:19:09.375Z,98312.78
2023-05-08T15:21:36.728Z,98318.63
2023-05-08T15:24:04.082Z,98315.47
2023-05-08T15:26:31.190Z,98314.13
2023-05-08T15:28:58.338Z,98315.66
2023-05-08T15:31:25.600Z,98320.13
2023-05-08T15:33:52.770Z,98317.41
2023-05-08T15:36:19.895Z,98315.06
2023-05-08T15:38:49.151Z,98313.22
2023-05-08T15:41:16.419Z,98304.47
2023-05-08T15:43:45.275Z,98316.19
2023-05-08T15:46:12.846Z,98310.75
2023-05-08T15:48:40.068Z,98319.16
2023-05-08T15:51:07.308Z,98305.56
2023-05-08T15:53:35.371Z,98304.38
2023-05-08T15:56:05.677Z,98315.28
2023-05-08T15:58:32.839Z,98303.63
2023-05-08T16:01:00.001Z,98305.38
2023-05-08T16:03:27.426Z,98310.00
2023-05-08T16:05:54.548Z,98298.94
2023-05-08T16:08:21.803Z,98295.03
2023-05-08T16:10:49.380Z,98303.31
2023-05-08T16:13:16.727Z,98296.75
2023-05-08T16:15:44.043Z,98294.34
2023-05-08T16:18:11.558Z,98293.28
2023-05-08T16:20:41.671Z,98289.16
2023-05-08T16:23:08.808Z,98286.03
2023-05-08T16:25:36.047Z,98284.75
2023-05-08T16:28:03.519Z,98278.16
2023-05-08T16:30:30.891Z,98290.38
2023-05-08T16:32:58.069Z,98287.22
2023-05-08T16:35:25.459Z,98290.84
2023-05-08T16:37:52.806Z,98300.03
2023-05-08T16:40:20.121Z,98294.47
2023-05-08T16:42:47.379Z,98292.31
2023-05-08T16:45:14.750Z,98304.88
2023-05-08T16:47:42.047Z,98300.16
2023-05-08T16:50:09.574Z,98300.41
2023-05-08T16:52:36.783Z,98289.50
2023-05-08T16:55:04.106Z,98288.81
2023-05-08T16:57:31.329Z,98292.13
2023-05-08T16:59:58.465Z,98299.59
2023-05-08T17:02:25.822Z,98298.25
2023-05-08T17:04:53.021Z,98295.25
2023-05-08T17:07:20.182Z,98294.38
2023-05-08T17:09:52.975Z,98302.63
2023-05-08T17:12:20.218Z,98299.03
2023-05-08T17:14:47.646Z,98276.59
2023-05-08T17:17:14.927Z,98293.50
2023-05-08T17:19:44.922Z,98291.03
2023-05-08T17:22:13.371Z,98290.50
2023-05-08T17:24:40.599Z,98287.03
2023-05-08T17:27:08.890Z,98284.63
2023-05-08T17:29:36.336Z,98288.31
2023-05-08T17:32:03.611Z,98287.88
2023-05-08T17:34:31.161Z,98281.06
2023-05-08T17:36:58.460Z,98282.72
2023-05-08T17:39:25.794Z,98274.75
2023-05-08T17:41:54.267Z,98284.69
2023-05-08T17:44:21.468Z,98295.25
2023-05-08T17:46:48.712Z,98282.19
2023-05-08T17:49:19.306Z,98284.13
2023-05-08T17:51:47.033Z,98285.34
2023-05-08T17:54:14.401Z,98281.66
2023-05-08T17:56:41.695Z,98297.00
2023-05-08T17:59:08.921Z,98289.41
2023-05-08T18:01:36.120Z,98297.09
2023-05-08T18:04:03.256Z,98299.03
2023-05-08T18:06:30.339Z,98299.66
2023-05-08T18:08:57.402Z,98301.41
2023-05-08T18:11:26.372Z,98298.34
2023-05-08T18:13:53.895Z,98297.72
2023-05-08T18:16:21.953Z,98301.72
2023-05-08T18:18:49.968Z,98295.25
2023-05-08T18:21:17.125Z,98299.16
2023-05-08T18:23:44.386Z,98305.63
2023-05-08T18:26:15.989Z,98313.47
2023-05-08T18:28:44.374Z,98309.66
2023-05-08T18:31:12.302Z,98306.34
2023-05-08T18:33:39.710Z,98309.72
2023-05-08T18:36:07.438Z,98311.22
2023-05-08T18:38:35.358Z,98317.56
2023-05-08T18:41:03.747Z,98309.63
2023-05-08T18:43:31.061Z,98313.47
2023-05-08T18:46:00.500Z,98315.69
2023-05-08T18:48:27.963Z,98320.16
2023-05-08T18:50:58.623Z,98318.66
2023-05-08T18:53:26.226Z,98326.50
2023-05-08T18:55:53.428Z,98324.28
2023-05-08T18:58:20.673Z,98331.13
2023-05-08T19:00:48.015Z,98336.38
2023-05-08T19:03:15.246Z,98335.16
2023-05-08T19:05:42.455Z,98336.75
2023-05-08T19:08:09.683Z,98336.13
2023-05-08T19:10:36.849Z,98327.75
2023-05-08T19:13:04.184Z,98327.44
2023-05-08T19:15:31.492Z,98325.84
2023-05-08T19:17:58.778Z,98331.91
2023-05-08T19:20:25.944Z,98328.25
2023-05-08T19:22:53.341Z,98324.81
2023-05-08T19:25:20.670Z,98321.50
2023-05-08T19:27:48.313Z,98317.97
2023-05-08T19:30:16.105Z,98325.50
2023-05-08T19:32:43.504Z,98325.28
2023-05-08T19:35:10.870Z,98319.34
2023-05-08T19:37:38.156Z,98319.66
2023-05-08T19:40:06.522Z,98316.47
2023-05-08T19:42:33.841Z,98319.31
2023-05-08T19:45:01.382Z,98316.06
2023-05-08T19:47:28.586Z,98306.41
2023-05-08T19:49:55.879Z,98303.19
2023-05-08T19:52:22.940Z,98313.75
2023-05-08T19:54:50.196Z,98307.22
2023-05-08T19:57:17.640Z,98310.97
2023-05-08T19:59:45.011Z,98309.16
2023-05-08T20:02:12.272Z,98310.06
2023-05-08T20:04:54.383Z,98310.75
2023-05-08T20:07:26.784Z,98309.84
2023-05-08T20:09:53.964Z,98302.59
2023-05-08T20:12:21.126Z,98300.66
2023-05-08T20:14:48.387Z,98308.78
2023-05-08T20:17:15.981Z,98306.72
2023-05-08T20:19:43.238Z,98300.19
2023-05-08T20:22:11.125Z,98294.13
2023-05-08T20:24:38.424Z,98292.59
2023-05-08T20:27:05.578Z,98291.56
2023-05-08T20:29:32.784Z,98286.16
2023-05-08T20:32:00.017Z,98289.59
2023-05-08T20:34:27.274Z,98286.59
2023-05-08T20:36:56.303Z,98278.00
2023-05-08T20:39:23.756Z,98281.44
2023-05-08T20:41:50.897Z,98274.97
2023-05-08T20:44:19.364Z,98275.28
2023-05-08T20:46:46.586Z,98284.66
2023-05-08T20:49:13.987Z,98270.78
2023-05-08T20:51:41.296Z,98274.84
2023-05-08T20:54:08.925Z,98283.75
2023-05-08T20:56:36.571Z,98278.13
2023-05-08T20:59:03.816Z,98273.88
2023-05-08T21:01:31.128Z,98271.84
2023-05-08T21:03:58.313Z,98270.56
2023-05-08T21:06:25.581Z,98277.75
2023-05-08T21:08:52.827Z,98272.06
2023-05-08T21:11:19.993Z,98273.44
2023-05-08T21:13:47.244Z,98276.22
2023-05-08T21:16:14.454Z,98265.22
2023-05-08T21:18:41.481Z,98265.25
2023-05-08T21:21:19.904Z,98269.88
2023-05-08T21:23:47.048Z,98258.94
2023-05-08T21:26:14.416Z,98260.66
2023-05-08T21:28:41.788Z,98259.38
2023-05-08T21:31:09.023Z,98251.59
2023-05-08T21:33:36.578Z,98257.47
2023-05-08T21:36:03.915Z,98264.13
2023-05-08T21:38:31.164Z,98258.53
2023-05-08T21:41:05.341Z,98260.44
2023-05-08T21:43:32.465Z,98260.22
2023-05-08T21:45:59.990Z,98258.03
2023-05-08T21:48:27.256Z,98257.00
2023-05-08T21:50:54.324Z,98252.28
2023-05-08T21:53:21.448Z,98258.28
2023-05-08T21:55:49.278Z,98257.75
2023-05-08T21:58:16.410Z,98254.06
2023-05-08T22:00:43.511Z,98254.50
2023-05-08T22:03:10.803Z,98247.34
2023-05-08T22:05:38.032Z,98244.91
2023-05-08T22:08:05.431Z,98250.00
2023-05-08T22:10:32.575Z,98240.31
2023-05-08T22:13:01.507Z,98243.94
2023-05-08T22:15:30.559Z,98240.78
2023-05-08T22:17:58.771Z,98239.00
2023-05-08T22:20:25.957Z,98233.59
2023-05-08T22:22:53.291Z,98229.50
2023-05-08T22:25:21.991Z,98233.75
2023-05-08T22:27:49.284Z,98242.19
2023-05-08T22:30:16.425Z,98237.59
2023-05-08T22:32:43.693Z,98239.69
2023-05-08T22:35:10.971Z,98231.81
2023-05-08T22:37:38.099Z,98230.91
2023-05-08T22:40:05.824Z,98229.50
2023-05-08T22:42:32.909Z,98231.81
2023-05-08T22:45:00.000Z,98229.72
2023-05-08T22:47:28.096Z,98227.03
2023-05-08T22:49:55.251Z,98225.34
2023-05-08T22:52:22.292Z,98231.19
2023-05-08T22:54:49.484Z,98223.66
2023-05-08T22:57:16.636Z,98227.97
2023-05-08T22:59:43.682Z,98220.47
2023-05-08T23:02:10.915Z,98220.44
2023-05-08T23:04:38.064Z,98223.91
2023-05-08T23:07:05.299Z,98223.06
2023-05-08T23:09:32.449Z,98221.66
2023-05-08T23:11:59.509Z,98224.06
2023-05-08T23:14:26.644Z,98221.50
2023-05-08T23:16:53.670Z,98221.84
2023-05-08T23:19:20.996Z,98220.31
2023-05-08T23:21:48.093Z,98220.00
2023-05-08T23:24:15.317Z,98208.91
2023-05-08T23:26:42.402Z,98211.81
2023-05-08T23:29:09.571Z,98214.13
2023-05-08T23:31:36.741Z,98216.59
2023-05-08T23:34:04.030Z,98211.19
2023-05-08T23:36:32.178Z,98207.28
2023-05-08T23:38:59.321Z,98208.94
2023-05-08T23:41:26.395Z,98208.78
2023-05-08T23:43:53.430Z,98204.31
2023-05-08T23:46:20.489Z,98200.13
2023-05-08T23:48:47.562Z,98193.81
2023-05-08T23:51:14.654Z,98192.94
2023-05-08T23:53:42.308Z,98202.25
2023-05-08T23:56:09.393Z,98199.63
2023-05-08T23:58:36.449Z,98201.41
